createdAt,value
2022-08-18T00:00:12.343Z,384
2022-08-18T00:01:07.697Z,379
2022-08-18T00:02:07.255Z,385
2022-08-18T00:03:20.714Z,383
2022-08-18T00:04:21.747Z,394
2022-08-18T00:05:07.473Z,401
2022-08-18T00:06:07.633Z,394
2022-08-18T00:07:07.143Z,395
2022-08-18T00:08:07.677Z,377
2022-08-18T00:09:07.368Z,373
2022-08-18T00:10:07.699Z,390
2022-08-18T00:11:07.213Z,400
2022-08-18T00:12:07.459Z,395
2022-08-18T00:13:06.880Z,393
2022-08-18T00:14:07.261Z,391
2022-08-18T00:15:07.799Z,388
2022-08-18T00:16:07.268Z,383
2022-08-18T00:17:07.628Z,391
2022-08-18T00:18:07.022Z,378
2022-08-18T00:19:09.415Z,370
2022-08-18T00:20:07.615Z,372
2022-08-18T00:21:07.049Z,386
2022-08-18T00:22:07.051Z,391
2022-08-18T00:23:07.097Z,384
2022-08-18T00:24:06.981Z,386
2022-08-18T00:25:07.278Z,378
2022-08-18T00:26:07.320Z,382
2022-08-18T00:27:07.528Z,393
2022-08-18T00:28:07.354Z,396
2022-08-18T00:29:07.248Z,393
2022-08-18T00:30:07.484Z,396
2022-08-18T00:31:06.929Z,397
2022-08-18T00:32:07.421Z,396
2022-08-18T00:33:06.947Z,370
2022-08-18T00:34:07.048Z,381
2022-08-18T00:35:07.053Z,399
2022-08-18T00:37:07.368Z,400
2022-08-18T00:38:07.342Z,396
2022-08-18T00:39:07.101Z,394
2022-08-18T00:40:07.439Z,404
2022-08-18T00:41:07.460Z,405
2022-08-18T00:42:07.024Z,399
2022-08-18T00:43:07.333Z,402
2022-08-18T00:44:07.260Z,400
2022-08-18T00:45:08.018Z,401
2022-08-18T00:46:07.041Z,396
2022-08-18T00:47:07.115Z,402
2022-08-18T00:48:07.237Z,384
2022-08-18T00:49:06.884Z,381
2022-08-18T00:50:07.203Z,386
2022-08-18T00:51:07.031Z,405
2022-08-18T00:52:07.295Z,402
2022-08-18T00:53:07.237Z,401
2022-08-18T00:54:07.279Z,398
2022-08-18T00:55:07.528Z,396
2022-08-18T00:56:07.436Z,402
2022-08-18T00:57:07.395Z,392
2022-08-18T00:58:07.506Z,396
2022-08-18T00:59:07.584Z,392
2022-08-18T01:00:07.933Z,394
2022-08-18T01:02:07.630Z,371
2022-08-18T01:03:07.196Z,420
2022-08-18T01:04:07.215Z,379
2022-08-18T01:05:07.563Z,382
2022-08-18T01:06:07.616Z,391
2022-08-18T01:07:07.225Z,396
2022-08-18T01:08:07.258Z,397
2022-08-18T01:10:07.133Z,402
2022-08-18T01:11:07.218Z,401
2022-08-18T01:13:07.511Z,392
2022-08-18T01:14:07.425Z,393
2022-08-18T01:15:08.149Z,385
2022-08-18T01:16:06.807Z,387
2022-08-18T01:17:07.449Z,388
2022-08-18T01:18:07.307Z,381
2022-08-18T01:19:07.256Z,394
2022-08-18T01:20:07.538Z,395
2022-08-18T01:21:07.322Z,382
2022-08-18T01:22:07.625Z,376
2022-08-18T01:23:07.871Z,385
2022-08-18T01:24:07.216Z,384
2022-08-18T01:25:07.315Z,385
2022-08-18T01:26:07.687Z,386
2022-08-18T01:27:07.186Z,388
2022-08-18T01:28:07.394Z,386
2022-08-18T01:29:07.809Z,397
2022-08-18T01:30:07.800Z,395
2022-08-18T01:31:07.075Z,394
2022-08-18T01:32:07.407Z,400
2022-08-18T01:33:07.763Z,405
2022-08-18T01:34:07.097Z,382
2022-08-18T01:35:07.239Z,387
2022-08-18T01:36:07.478Z,396
2022-08-18T01:37:07.194Z,398
2022-08-18T01:38:07.479Z,388
2022-08-18T01:39:07.676Z,391
2022-08-18T01:41:22.913Z,388
2022-08-18T01:41:26.078Z,392
2022-08-18T01:42:07.197Z,396
2022-08-18T01:43:07.291Z,393
2022-08-18T01:44:07.313Z,399
2022-08-18T01:45:07.573Z,393
2022-08-18T01:46:07.723Z,390
2022-08-18T01:48:06.888Z,387
2022-08-18T01:49:07.084Z,413
2022-08-18T01:50:07.098Z,387
2022-08-18T01:51:07.491Z,392
2022-08-18T01:52:07.543Z,386
2022-08-18T01:53:07.425Z,382
2022-08-18T01:54:07.691Z,380
2022-08-18T01:55:07.341Z,390
2022-08-18T01:56:07.372Z,396
2022-08-18T01:57:07.717Z,385
2022-08-18T01:58:07.104Z,381
2022-08-18T01:59:07.218Z,390
2022-08-18T02:00:08.073Z,387
2022-08-18T02:01:07.694Z,398
2022-08-18T02:02:07.638Z,389
2022-08-18T02:03:07.588Z,382
2022-08-18T02:04:31.188Z,392
2022-08-18T02:05:07.624Z,398
2022-08-18T02:06:07.106Z,400
2022-08-18T02:07:07.819Z,390
2022-08-18T02:08:07.755Z,387
2022-08-18T02:09:07.389Z,377
2022-08-18T02:10:11.874Z,388
2022-08-18T02:11:07.597Z,407
2022-08-18T02:12:07.518Z,400
2022-08-18T02:13:07.695Z,397
2022-08-18T02:14:07.579Z,400
2022-08-18T02:15:07.745Z,406
2022-08-18T02:16:07.212Z,411
2022-08-18T02:17:07.528Z,407
2022-08-18T02:18:07.441Z,402
2022-08-18T02:19:07.484Z,407
2022-08-18T02:20:07.565Z,375
2022-08-18T02:21:10.163Z,382
2022-08-18T02:22:07.542Z,400
2022-08-18T02:23:07.723Z,393
2022-08-18T02:24:07.188Z,389
2022-08-18T02:25:07.686Z,398
2022-08-18T02:26:06.907Z,404
2022-08-18T02:27:06.984Z,405
2022-08-18T02:28:07.220Z,402
2022-08-18T02:29:07.365Z,412
2022-08-18T02:31:07.438Z,411
2022-08-18T02:32:07.411Z,399
2022-08-18T02:33:07.532Z,401
2022-08-18T02:34:07.483Z,402
2022-08-18T02:35:09.499Z,397
2022-08-18T02:36:07.245Z,383
2022-08-18T02:37:09.910Z,390
2022-08-18T02:38:07.524Z,385
2022-08-18T02:39:07.310Z,399
2022-08-18T02:40:07.462Z,392
2022-08-18T02:41:07.215Z,399
2022-08-18T02:42:07.302Z,400
2022-08-18T02:43:07.382Z,396
2022-08-18T02:44:07.270Z,405
2022-08-18T02:45:07.746Z,413
2022-08-18T02:46:07.262Z,408
2022-08-18T02:47:07.300Z,406
2022-08-18T02:48:07.401Z,410
2022-08-18T02:49:07.471Z,400
2022-08-18T02:50:07.795Z,407
2022-08-18T02:52:07.423Z,412
2022-08-18T02:53:07.468Z,420
2022-08-18T02:54:07.718Z,409
2022-08-18T02:55:07.282Z,402
2022-08-18T02:57:07.223Z,416
2022-08-18T02:58:07.239Z,402
2022-08-18T02:59:07.051Z,390
2022-08-18T03:00:07.758Z,385
2022-08-18T03:01:07.018Z,401
2022-08-18T03:02:07.387Z,408
2022-08-18T03:03:07.162Z,404
2022-08-18T03:04:07.252Z,405
2022-08-18T03:05:07.283Z,398
2022-08-18T03:06:06.893Z,397
2022-08-18T03:07:07.175Z,387
2022-08-18T03:08:07.243Z,405
2022-08-18T03:09:07.373Z,398
2022-08-18T03:10:32.679Z,397
2022-08-18T03:11:07.463Z,412
2022-08-18T03:12:07.338Z,409
2022-08-18T03:13:07.230Z,403
2022-08-18T03:14:11.245Z,406
2022-08-18T03:15:07.189Z,400
2022-08-18T03:16:07.198Z,409
2022-08-18T03:17:07.516Z,413
2022-08-18T03:18:07.492Z,410
2022-08-18T03:19:07.305Z,404
2022-08-18T03:20:07.163Z,410
2022-08-18T03:21:07.658Z,416
2022-08-18T03:22:18.748Z,432
2022-08-18T03:23:09.752Z,392
2022-08-18T03:24:09.287Z,404
2022-08-18T03:25:07.466Z,409
2022-08-18T03:26:07.380Z,413
2022-08-18T03:27:07.390Z,414
2022-08-18T03:28:07.643Z,411
2022-08-18T03:29:06.905Z,417
2022-08-18T03:30:11.301Z,416
2022-08-18T03:31:06.987Z,419
2022-08-18T03:32:07.183Z,415
2022-08-18T03:33:07.216Z,400
2022-08-18T03:34:07.591Z,404
2022-08-18T03:35:07.849Z,405
2022-08-18T03:36:07.317Z,394
2022-08-18T03:37:07.455Z,399
2022-08-18T03:38:07.467Z,396
2022-08-18T03:39:07.505Z,402
2022-08-18T03:40:07.780Z,394
2022-08-18T03:41:07.238Z,404
2022-08-18T03:42:07.242Z,395
2022-08-18T03:43:49.459Z,394
2022-08-18T03:44:06.765Z,395
2022-08-18T03:45:13.273Z,391
2022-08-18T03:46:06.871Z,399
2022-08-18T03:47:06.894Z,403
2022-08-18T03:49:07.554Z,407
2022-08-18T03:50:07.642Z,401
2022-08-18T03:51:06.926Z,405
2022-08-18T03:52:06.982Z,399
2022-08-18T03:53:07.176Z,398
2022-08-18T03:54:07.188Z,404
2022-08-18T03:56:07.283Z,402
2022-08-18T03:57:07.714Z,393
2022-08-18T03:58:07.809Z,396
2022-08-18T03:59:06.905Z,391
2022-08-18T04:00:07.848Z,388
2022-08-18T04:01:07.529Z,393
2022-08-18T04:02:07.662Z,397
2022-08-18T04:03:07.168Z,402
2022-08-18T04:04:07.409Z,379
2022-08-18T04:05:07.182Z,381
2022-08-18T04:06:12.139Z,376
2022-08-18T04:07:07.298Z,379
2022-08-18T04:08:07.604Z,388
2022-08-18T04:09:07.784Z,385
2022-08-18T04:10:07.182Z,402
2022-08-18T04:11:07.981Z,399
2022-08-18T04:12:07.430Z,388
2022-08-18T04:13:07.482Z,401
2022-08-18T04:14:07.484Z,399
2022-08-18T04:15:07.358Z,387
2022-08-18T04:16:07.588Z,397
2022-08-18T04:17:07.393Z,408
2022-08-18T04:18:08.129Z,409
2022-08-18T04:19:07.030Z,400
2022-08-18T04:20:07.020Z,407
2022-08-18T04:21:07.326Z,397
2022-08-18T04:22:07.453Z,395
2022-08-18T04:23:07.284Z,387
2022-08-18T04:24:07.532Z,382
2022-08-18T04:25:07.860Z,396
2022-08-18T04:26:07.051Z,370
2022-08-18T04:27:07.036Z,363
2022-08-18T04:29:07.349Z,382
2022-08-18T04:30:07.750Z,388
2022-08-18T04:31:09.217Z,382
2022-08-18T04:32:07.741Z,373
2022-08-18T04:33:07.129Z,374
2022-08-18T04:34:07.465Z,369
2022-08-18T04:35:12.302Z,379
2022-08-18T04:36:07.807Z,388
2022-08-18T04:37:07.101Z,384
2022-08-18T04:38:07.171Z,383
2022-08-18T04:39:07.397Z,394
2022-08-18T04:40:07.882Z,383
2022-08-18T04:41:06.786Z,368
2022-08-18T04:42:07.000Z,399
2022-08-18T04:43:07.064Z,398
2022-08-18T04:44:07.395Z,385
2022-08-18T04:45:07.613Z,383
2022-08-18T04:46:07.682Z,392
2022-08-18T04:47:06.963Z,396
2022-08-18T04:48:07.255Z,390
2022-08-18T04:49:07.274Z,389
2022-08-18T04:50:07.335Z,381
2022-08-18T04:51:07.249Z,380
2022-08-18T04:52:37.547Z,383
2022-08-18T04:53:07.307Z,394
2022-08-18T04:54:07.366Z,398
2022-08-18T04:55:07.604Z,396
2022-08-18T04:56:07.819Z,394
2022-08-18T04:57:06.893Z,384
2022-08-18T04:58:07.108Z,373
2022-08-18T04:59:07.376Z,380
2022-08-18T05:00:08.194Z,395
2022-08-18T05:01:07.511Z,396
2022-08-18T05:02:10.260Z,393
2022-08-18T05:03:07.213Z,394
2022-08-18T05:04:07.158Z,400
2022-08-18T05:05:07.283Z,389
2022-08-18T05:06:07.508Z,386
2022-08-18T05:07:07.815Z,389
2022-08-18T05:08:06.969Z,380
2022-08-18T05:09:07.139Z,387
2022-08-18T05:10:07.500Z,389
2022-08-18T05:11:07.656Z,400
2022-08-18T05:12:07.002Z,376
2022-08-18T05:13:07.442Z,425
2022-08-18T05:14:07.453Z,396
2022-08-18T05:16:11.811Z,380
2022-08-18T05:17:07.595Z,382
2022-08-18T05:18:07.666Z,396
2022-08-18T05:19:08.005Z,388
2022-08-18T05:20:07.418Z,386
2022-08-18T05:21:09.148Z,382
2022-08-18T05:22:07.598Z,390
2022-08-18T05:23:07.405Z,400
2022-08-18T05:24:07.533Z,390
2022-08-18T05:25:07.772Z,391
2022-08-18T05:26:07.542Z,399
2022-08-18T05:27:07.807Z,386
2022-08-18T05:28:07.049Z,381
2022-08-18T05:29:18.164Z,395
2022-08-18T05:30:08.343Z,387
2022-08-18T05:31:13.122Z,381
2022-08-18T05:32:07.387Z,387
2022-08-18T05:35:07.181Z,385
2022-08-18T05:36:07.591Z,386
2022-08-18T05:37:08.259Z,389
2022-08-18T05:38:07.606Z,399
2022-08-18T05:39:08.607Z,392
2022-08-18T05:40:11.425Z,390
2022-08-18T05:41:07.287Z,383
2022-08-18T05:42:07.264Z,373
2022-08-18T05:43:07.325Z,383
2022-08-18T05:44:07.360Z,359
2022-08-18T05:45:07.672Z,368
2022-08-18T05:46:07.267Z,375
2022-08-18T05:47:07.530Z,376
2022-08-18T05:48:07.503Z,377
2022-08-18T05:49:07.559Z,385
2022-08-18T05:50:07.765Z,374
2022-08-18T05:51:07.029Z,378
2022-08-18T05:52:07.215Z,370
2022-08-18T05:53:12.534Z,392
2022-08-18T05:54:07.441Z,387
2022-08-18T05:55:07.841Z,391
2022-08-18T05:56:07.192Z,390
2022-08-18T05:57:07.683Z,393
2022-08-18T05:58:07.361Z,389
2022-08-18T05:59:07.378Z,408
2022-08-18T06:00:08.649Z,401
2022-08-18T06:01:07.769Z,408
2022-08-18T06:02:07.429Z,397
2022-08-18T06:03:07.328Z,384
2022-08-18T06:04:07.586Z,372
2022-08-18T06:05:07.365Z,366
2022-08-18T06:06:07.593Z,377
2022-08-18T06:07:07.300Z,385
2022-08-18T06:08:07.618Z,390
2022-08-18T06:09:07.700Z,393
2022-08-18T06:10:07.186Z,398
2022-08-18T06:11:07.607Z,399
2022-08-18T06:12:07.012Z,402
2022-08-18T06:13:07.238Z,405
2022-08-18T06:15:08.061Z,398
2022-08-18T06:16:07.522Z,390
2022-08-18T06:17:07.357Z,392
2022-08-18T06:18:07.408Z,385
2022-08-18T06:19:07.651Z,393
2022-08-18T06:20:07.962Z,396
2022-08-18T06:21:07.122Z,394
2022-08-18T06:22:07.251Z,387
2022-08-18T06:23:07.397Z,390
2022-08-18T06:24:07.459Z,382
2022-08-18T06:25:07.569Z,400
2022-08-18T06:26:07.453Z,401
2022-08-18T06:27:07.650Z,390
2022-08-18T06:28:07.697Z,381
2022-08-18T06:29:07.234Z,390
2022-08-18T06:30:07.847Z,386
2022-08-18T06:31:07.191Z,375
2022-08-18T06:32:07.493Z,378
2022-08-18T06:33:07.558Z,382
2022-08-18T06:34:07.607Z,375
2022-08-18T06:35:07.087Z,367
2022-08-18T06:36:07.225Z,371
2022-08-18T06:37:07.283Z,382
2022-08-18T06:38:07.511Z,379
2022-08-18T06:39:08.000Z,372
2022-08-18T06:40:07.497Z,379
2022-08-18T06:41:07.817Z,380
2022-08-18T06:42:07.506Z,377
2022-08-18T06:43:07.688Z,376
2022-08-18T06:44:07.200Z,375
2022-08-18T06:45:07.752Z,380
2022-08-18T06:46:07.402Z,374
2022-08-18T06:47:07.563Z,376
2022-08-18T06:48:15.636Z,379
2022-08-18T06:49:07.408Z,370
2022-08-18T06:50:07.913Z,365
2022-08-18T06:51:07.308Z,373
2022-08-18T06:52:07.388Z,378
2022-08-18T06:53:07.385Z,379
2022-08-18T06:54:07.491Z,386
2022-08-18T06:55:07.650Z,395
2022-08-18T06:56:25.804Z,386
2022-08-18T06:57:07.009Z,378
2022-08-18T06:58:07.135Z,369
2022-08-18T06:59:07.140Z,373
2022-08-18T07:00:08.141Z,365
2022-08-18T07:01:07.787Z,354
2022-08-18T07:02:07.589Z,365
2022-08-18T07:03:07.367Z,371
2022-08-18T07:04:07.638Z,372
2022-08-18T07:05:07.237Z,368
2022-08-18T07:06:07.338Z,354
2022-08-18T07:07:07.364Z,355
2022-08-18T07:08:07.676Z,365
2022-08-18T07:09:07.141Z,375
2022-08-18T07:10:07.291Z,376
2022-08-18T07:11:07.494Z,362
2022-08-18T07:12:07.790Z,365
2022-08-18T07:13:07.190Z,373
2022-08-18T07:14:16.209Z,369
2022-08-18T07:15:07.778Z,375
2022-08-18T07:16:07.263Z,380
2022-08-18T07:18:07.661Z,339
2022-08-18T07:19:07.657Z,353
2022-08-18T07:20:26.191Z,367
2022-08-18T07:21:07.578Z,366
2022-08-18T07:22:07.725Z,367
2022-08-18T07:23:07.896Z,360
2022-08-18T07:24:23.158Z,362
2022-08-18T07:25:07.455Z,358
2022-08-18T07:26:07.704Z,369
2022-08-18T07:27:07.329Z,370
2022-08-18T07:28:07.746Z,368
2022-08-18T07:29:07.185Z,364
2022-08-18T07:30:07.795Z,365
2022-08-18T07:31:17.070Z,358
2022-08-18T07:32:09.468Z,377
2022-08-18T07:33:07.663Z,379
2022-08-18T07:34:07.763Z,388
2022-08-18T07:35:07.947Z,381
2022-08-18T07:36:07.038Z,377
2022-08-18T07:37:07.421Z,379
2022-08-18T07:38:24.856Z,374
2022-08-18T07:39:07.362Z,380
2022-08-18T07:40:07.857Z,379
2022-08-18T07:41:07.427Z,390
2022-08-18T07:42:07.544Z,389
2022-08-18T07:43:07.916Z,373
2022-08-18T07:44:12.950Z,371
2022-08-18T07:45:07.396Z,360
2022-08-18T07:46:07.837Z,357
2022-08-18T07:47:07.282Z,359
2022-08-18T07:48:27.512Z,373
2022-08-18T07:49:07.714Z,389
2022-08-18T07:50:23.372Z,354
2022-08-18T07:51:08.784Z,353
2022-08-18T07:52:14.601Z,355
2022-08-18T07:54:07.126Z,362
2022-08-18T07:55:07.469Z,371
2022-08-18T07:56:07.519Z,375
2022-08-18T07:58:07.318Z,369
2022-08-18T07:59:07.493Z,364
2022-08-18T08:00:10.512Z,368
2022-08-18T08:01:07.184Z,367
2022-08-18T08:02:07.523Z,374
2022-08-18T08:03:07.153Z,380
2022-08-18T08:04:07.362Z,373
2022-08-18T08:05:07.407Z,363
2022-08-18T08:06:08.017Z,400
2022-08-18T08:07:24.003Z,391
2022-08-18T08:08:07.005Z,372
2022-08-18T08:09:07.544Z,371
2022-08-18T08:10:07.720Z,377
2022-08-18T08:11:07.161Z,375
2022-08-18T08:12:07.201Z,372
2022-08-18T08:13:09.656Z,374
2022-08-18T08:14:07.555Z,366
2022-08-18T08:15:08.323Z,358
2022-08-18T08:16:07.385Z,354
2022-08-18T08:17:07.974Z,357
2022-08-18T08:18:07.232Z,358
2022-08-18T08:19:12.385Z,361
2022-08-18T08:20:07.285Z,353
2022-08-18T08:21:07.666Z,387
2022-08-18T08:22:07.123Z,354
2022-08-18T08:23:07.689Z,362
2022-08-18T08:24:07.342Z,368
2022-08-18T08:25:22.454Z,370
2022-08-18T08:26:08.524Z,376
2022-08-18T08:27:07.441Z,369
2022-08-18T08:28:07.603Z,361
2022-08-18T08:29:08.031Z,364
2022-08-18T08:30:08.227Z,368
2022-08-18T08:31:33.072Z,370
2022-08-18T08:32:07.757Z,379
2022-08-18T08:33:07.157Z,387
2022-08-18T08:34:07.414Z,389
2022-08-18T08:35:10.423Z,376
2022-08-18T08:36:07.401Z,368
2022-08-18T08:37:07.503Z,381
2022-08-18T08:38:23.252Z,354
2022-08-18T08:39:07.157Z,369
2022-08-18T08:40:07.986Z,370
2022-08-18T08:41:07.585Z,378
2022-08-18T08:42:31.844Z,386
2022-08-18T08:43:07.556Z,378
2022-08-18T08:45:08.156Z,377
2022-08-18T08:46:07.410Z,380
2022-08-18T08:47:07.386Z,392
2022-08-18T08:48:09.555Z,393
2022-08-18T08:49:07.390Z,381
2022-08-18T08:50:07.673Z,371
2022-08-18T08:51:07.093Z,375
2022-08-18T08:52:07.331Z,379
2022-08-18T08:53:07.558Z,350
2022-08-18T08:54:07.755Z,373
2022-08-18T08:55:07.153Z,385
2022-08-18T08:56:07.090Z,369
2022-08-18T08:57:09.847Z,354
2022-08-18T08:58:07.297Z,373
2022-08-18T08:59:07.652Z,377
2022-08-18T09:00:08.513Z,387
2022-08-18T09:01:07.735Z,390
2022-08-18T09:02:07.311Z,383
2022-08-18T09:03:07.378Z,389
2022-08-18T09:04:07.415Z,381
2022-08-18T09:06:07.348Z,385
2022-08-18T09:07:07.626Z,388
2022-08-18T09:08:07.003Z,390
2022-08-18T09:09:07.555Z,386
2022-08-18T09:10:07.608Z,383
2022-08-18T09:12:07.127Z,375
2022-08-18T09:14:07.474Z,378
2022-08-18T09:15:08.104Z,390
2022-08-18T09:16:12.196Z,389
2022-08-18T09:17:07.555Z,388
2022-08-18T09:18:07.349Z,381
2022-08-18T09:19:07.486Z,372
2022-08-18T09:21:07.285Z,385
2022-08-18T09:22:07.366Z,386
2022-08-18T09:23:07.594Z,387
2022-08-18T09:24:07.014Z,389
2022-08-18T09:25:07.473Z,386
2022-08-18T09:26:07.872Z,387
2022-08-18T09:27:21.472Z,386
2022-08-18T09:28:10.824Z,373
2022-08-18T09:29:07.772Z,376
2022-08-18T09:30:07.331Z,368
2022-08-18T09:31:09.098Z,373
2022-08-18T09:32:11.336Z,371
2022-08-18T09:33:18.552Z,382
2022-08-18T09:34:07.450Z,378
2022-08-18T09:35:07.433Z,376
2022-08-18T09:36:10.157Z,383
2022-08-18T09:37:07.745Z,380
2022-08-18T09:38:07.217Z,377
2022-08-18T09:39:08.020Z,370
2022-08-18T09:40:10.852Z,381
2022-08-18T09:41:07.310Z,390
2022-08-18T09:42:07.157Z,374
2022-08-18T09:43:07.601Z,365
2022-08-18T09:44:07.637Z,372
2022-08-18T09:45:07.438Z,369
2022-08-18T09:46:07.487Z,374
2022-08-18T09:47:07.437Z,364
2022-08-18T09:48:10.106Z,369
2022-08-18T09:49:08.424Z,367
2022-08-18T09:50:09.170Z,378
2022-08-18T09:52:07.672Z,377
2022-08-18T09:53:07.291Z,351
2022-08-18T09:54:07.532Z,422
2022-08-18T09:55:07.804Z,384
2022-08-18T09:56:07.199Z,368
2022-08-18T09:58:07.685Z,369
2022-08-18T09:59:09.837Z,373
2022-08-18T10:00:08.301Z,380
2022-08-18T10:01:07.090Z,384
2022-08-18T10:02:14.216Z,378
2022-08-18T10:03:07.526Z,368
2022-08-18T10:04:06.967Z,369
2022-08-18T10:05:07.665Z,374
2022-08-18T10:07:07.342Z,380
2022-08-18T10:08:07.674Z,378
2022-08-18T10:10:18.478Z,376
2022-08-18T10:11:09.659Z,372
2022-08-18T10:12:08.160Z,373
2022-08-18T10:13:07.219Z,363
2022-08-18T10:14:07.803Z,372
2022-08-18T10:15:07.485Z,384
2022-08-18T10:16:10.896Z,385
2022-08-18T10:17:23.580Z,368
2022-08-18T10:18:07.712Z,357
2022-08-18T10:19:07.681Z,360
2022-08-18T10:20:07.222Z,362
2022-08-18T10:21:07.777Z,354
2022-08-18T10:22:07.439Z,355
2022-08-18T10:23:07.912Z,340
2022-08-18T10:25:22.233Z,362
2022-08-18T10:26:11.427Z,372
2022-08-18T10:27:07.190Z,381
2022-08-18T10:28:07.335Z,379
2022-08-18T10:29:07.246Z,363
2022-08-18T10:30:07.879Z,356
2022-08-18T10:31:10.307Z,363
2022-08-18T10:32:07.222Z,368
2022-08-18T10:33:18.009Z,363
2022-08-18T10:34:16.515Z,372
2022-08-18T10:35:07.766Z,360
2022-08-18T10:36:07.553Z,352
2022-08-18T10:37:07.272Z,358
2022-08-18T10:38:07.325Z,347
2022-08-18T10:39:07.640Z,404
2022-08-18T10:40:07.344Z,372
2022-08-18T10:42:07.231Z,376
2022-08-18T10:43:26.824Z,377
2022-08-18T10:44:21.105Z,371
2022-08-18T10:45:07.542Z,367
2022-08-18T10:46:24.902Z,369
2022-08-18T10:47:12.157Z,365
2022-08-18T10:48:11.953Z,361
2022-08-18T10:49:08.861Z,366
2022-08-18T10:50:07.638Z,371
2022-08-18T10:51:07.498Z,376
2022-08-18T10:52:07.672Z,372
2022-08-18T10:54:07.718Z,376
2022-08-18T10:56:07.648Z,367
2022-08-18T10:57:07.139Z,372
2022-08-18T10:58:07.332Z,370
2022-08-18T11:00:08.423Z,375
2022-08-18T11:02:07.677Z,365
2022-08-18T11:03:42.618Z,363
2022-08-18T11:04:14.060Z,366
2022-08-18T11:05:07.958Z,364
2022-08-18T11:07:08.374Z,375
2022-08-18T11:08:15.734Z,330
2022-08-18T11:09:07.769Z,345
2022-08-18T11:10:29.460Z,352
2022-08-18T11:11:33.031Z,351
2022-08-18T11:12:07.569Z,345
2022-08-18T11:13:08.850Z,354
2022-08-18T11:15:23.288Z,357
2022-08-18T11:17:07.566Z,356
2022-08-18T11:18:10.337Z,360
2022-08-18T11:19:07.583Z,364
2022-08-18T11:20:07.509Z,358
2022-08-18T11:21:08.231Z,383
2022-08-18T11:22:07.353Z,361
2022-08-18T11:23:07.823Z,366
2022-08-18T11:24:07.710Z,368
2022-08-18T11:25:07.935Z,361
2022-08-18T11:26:07.260Z,358
2022-08-18T11:27:15.202Z,357
2022-08-18T11:28:07.786Z,362
2022-08-18T11:29:07.489Z,353
2022-08-18T11:30:08.059Z,360
2022-08-18T11:31:07.772Z,359
2022-08-18T11:32:09.277Z,342
2022-08-18T11:33:07.132Z,346
2022-08-18T11:34:07.304Z,354
2022-08-18T11:35:07.612Z,353
2022-08-18T11:36:07.430Z,354
2022-08-18T11:37:08.907Z,356
2022-08-18T11:39:07.371Z,369
2022-08-18T11:40:09.610Z,364
2022-08-18T11:41:09.488Z,366
2022-08-18T11:42:07.451Z,368
2022-08-18T11:43:07.924Z,356
2022-08-18T11:44:08.037Z,348
2022-08-18T11:45:07.876Z,354
2022-08-18T11:46:07.650Z,355
2022-08-18T11:47:07.998Z,349
2022-08-18T11:48:22.018Z,346
2022-08-18T11:49:07.559Z,364
2022-08-18T11:50:07.466Z,332
2022-08-18T11:51:07.515Z,349
2022-08-18T11:52:07.297Z,368
2022-08-18T11:53:07.740Z,359
2022-08-18T11:54:07.405Z,346
2022-08-18T11:55:16.338Z,360
2022-08-18T11:57:10.098Z,353
2022-08-18T11:59:07.207Z,364
2022-08-18T12:00:22.661Z,368
2022-08-18T12:01:08.168Z,367
2022-08-18T12:02:07.698Z,361
2022-08-18T12:03:07.391Z,371
2022-08-18T12:04:26.330Z,359
2022-08-18T12:06:07.749Z,356
2022-08-18T12:07:07.805Z,352
2022-08-18T12:09:07.615Z,366
2022-08-18T12:10:17.299Z,360
2022-08-18T12:11:26.857Z,364
2022-08-18T12:12:07.697Z,355
2022-08-18T12:13:07.195Z,356
2022-08-18T12:14:31.435Z,351
2022-08-18T12:15:17.218Z,347
2022-08-18T12:16:07.602Z,360
2022-08-18T12:17:07.195Z,365
2022-08-18T12:18:07.225Z,350
2022-08-18T12:19:07.160Z,357
2022-08-18T12:20:07.513Z,364
2022-08-18T12:21:07.298Z,362
2022-08-18T12:22:11.780Z,360
2022-08-18T12:25:12.172Z,361
2022-08-18T12:26:07.102Z,353
2022-08-18T12:27:20.524Z,357
2022-08-18T12:28:10.868Z,356
2022-08-18T12:29:08.684Z,331
2022-08-18T12:30:07.566Z,371
2022-08-18T12:31:17.052Z,368
2022-08-18T12:32:08.499Z,365
2022-08-18T12:33:12.421Z,348
2022-08-18T12:35:09.371Z,343
2022-08-18T12:36:07.404Z,346
2022-08-18T12:37:34.020Z,349
2022-08-18T12:39:07.349Z,352
2022-08-18T12:40:08.621Z,348
2022-08-18T12:41:07.320Z,367
2022-08-18T12:42:07.392Z,361
2022-08-18T12:43:07.747Z,352
2022-08-18T12:44:13.165Z,348
2022-08-18T12:45:07.580Z,350
2022-08-18T12:46:07.398Z,341
2022-08-18T12:47:07.452Z,352
2022-08-18T12:48:07.235Z,357
2022-08-18T12:49:07.482Z,349
2022-08-18T12:50:07.382Z,348
2022-08-18T12:51:07.976Z,350
2022-08-18T12:52:07.598Z,345
2022-08-18T12:53:07.501Z,352
2022-08-18T12:54:07.468Z,349
2022-08-18T12:55:07.190Z,354
2022-08-18T12:56:08.561Z,334
2022-08-18T12:57:07.048Z,386
2022-08-18T12:58:07.270Z,354
2022-08-18T12:59:07.587Z,341
2022-08-18T13:00:08.113Z,343
2022-08-18T13:01:07.684Z,344
2022-08-18T13:02:07.440Z,341
2022-08-18T13:03:07.469Z,337
2022-08-18T13:06:07.586Z,367
2022-08-18T13:07:07.391Z,363
2022-08-18T13:08:12.437Z,354
2022-08-18T13:09:16.223Z,341
2022-08-18T13:10:07.655Z,373
2022-08-18T13:11:14.632Z,354
2022-08-18T13:12:12.670Z,340
2022-08-18T13:13:07.408Z,341
2022-08-18T13:14:08.920Z,350
2022-08-18T13:15:07.889Z,353
2022-08-18T13:16:07.109Z,352
2022-08-18T13:17:13.147Z,354
2022-08-18T13:18:07.426Z,352
2022-08-18T13:19:07.603Z,364
2022-08-18T13:20:07.713Z,350
2022-08-18T13:21:07.591Z,346
2022-08-18T13:22:07.417Z,345
2022-08-18T13:23:08.462Z,362
2022-08-18T13:24:07.435Z,363
2022-08-18T13:25:07.605Z,373
2022-08-18T13:26:08.760Z,350
2022-08-18T13:27:13.633Z,342
2022-08-18T13:28:07.631Z,349
2022-08-18T13:29:10.150Z,374
2022-08-18T13:30:16.805Z,363
2022-08-18T13:31:07.852Z,358
2022-08-18T13:32:07.426Z,360
2022-08-18T13:33:34.504Z,358
2022-08-18T13:34:07.167Z,343
2022-08-18T13:35:09.059Z,342
2022-08-18T13:36:07.285Z,343
2022-08-18T13:37:07.711Z,364
2022-08-18T13:38:17.048Z,363
2022-08-18T13:39:07.857Z,354
2022-08-18T13:40:07.737Z,353
2022-08-18T13:41:07.440Z,362
2022-08-18T13:42:26.220Z,369
2022-08-18T13:43:09.253Z,360
2022-08-18T13:44:07.746Z,361
2022-08-18T13:46:09.191Z,348
2022-08-18T13:47:07.970Z,349
2022-08-18T13:48:07.433Z,356
2022-08-18T13:49:07.433Z,367
2022-08-18T13:50:10.068Z,342
2022-08-18T13:51:08.134Z,348
2022-08-18T13:52:12.154Z,354
2022-08-18T13:53:07.636Z,357
2022-08-18T13:54:28.877Z,351
2022-08-18T13:55:08.358Z,345
2022-08-18T13:56:07.566Z,339
2022-08-18T13:57:07.571Z,324
2022-08-18T13:58:17.414Z,328
2022-08-18T13:59:07.258Z,342
2022-08-18T14:00:18.027Z,348
2022-08-18T14:01:42.120Z,352
2022-08-18T14:02:08.618Z,349
2022-08-18T14:03:07.905Z,367
2022-08-18T14:04:07.537Z,349
2022-08-18T14:05:07.497Z,342
2022-08-18T14:06:07.758Z,345
2022-08-18T14:07:10.376Z,348
2022-08-18T14:08:10.001Z,353
2022-08-18T14:09:19.769Z,351
2022-08-18T14:10:07.983Z,355
2022-08-18T14:11:07.422Z,365
2022-08-18T14:12:15.816Z,367
2022-08-18T14:13:19.959Z,366
2022-08-18T14:14:07.660Z,361
2022-08-18T14:15:08.011Z,368
2022-08-18T14:16:07.757Z,366
2022-08-18T14:17:07.474Z,353
2022-08-18T14:18:07.553Z,347
2022-08-18T14:19:09.586Z,345
2022-08-18T14:20:10.288Z,352
2022-08-18T14:21:07.420Z,356
2022-08-18T14:22:07.400Z,346
2022-08-18T14:23:07.990Z,337
2022-08-18T14:24:10.713Z,347
2022-08-18T14:25:07.959Z,352
2022-08-18T14:26:07.404Z,345
2022-08-18T14:27:07.158Z,318
2022-08-18T14:28:07.828Z,366
2022-08-18T14:29:07.441Z,345
2022-08-18T14:30:08.249Z,340
2022-08-18T14:31:07.912Z,351
2022-08-18T14:32:08.422Z,348
2022-08-18T14:33:07.712Z,344
2022-08-18T14:35:32.911Z,350